Weather observations for the past three days for
Platteville Municipal Airport
Imperial (Metric)
Date Time (cdt) Wind (mph) Vis. (mi.) Weather Sky Cond. Temperature (ºF) Relative Humidity Wind Chill (°F) Heat Index (°F) Pressure Precipitation (in)
Air Dwpt 6 hour altimeter (in) sea level (mb) 1 hr 3 hr 6 hr
Max. Min.
01 16:55 Calm 10.00 Fair CLR 90.9 71.1 52% 97 29.94 0.0
01 16:35 Calm 10.00 Fair CLR 90.3 71.6 54% 97 29.94 0.0
01 16:15 Calm 10.00 Fair CLR 90.7 69.8 50% 96 29.95 0.0
01 15:55 W 6 7.00 Fair CLR 90.5 73.9 58% 100 29.96 0.0
01 15:35 Calm 10.00 Partly Cloudy SCT034 90.3 75.2 61% 101 29.96 0.0
01 15:15 NW 3 10.00 Mostly Cloudy BKN032 88.7 75.2 64% 99 29.96 0.0
01 14:55 NW 5 10.00 Mostly Cloudy SCT034 BKN039 88.9 75.2 64% 99 29.97 0.0
01 14:35 Calm 10.00 Fair CLR 89.2 75.7 65% 100 29.96 0.0
01 14:15 Calm 10.00 Fair CLR 88.7 74.1 62% 98 29.97 0.0
01 13:55 Calm 10.00 Fair CLR 87.8 74.1 64% 97 29.97 0.0
01 13:35 W 5 10.00 Fair CLR 88.2 73.8 62% 97 29.98 0.0
01 13:15 W 5 10.00 Fair CLR 87.3 74.5 66% 96 29.98 0.0
01 12:55 SW 3 10.00 Fair CLR 86.4 76.3 72% 97 29.98 0.0 0.03
01 12:35 W 3 10.00 Fair CLR 84.6 77.5 80% 95 29.98 0.0
01 12:15 Calm 10.00 Fair CLR 83.3 77.2 82% 93 29.99 0.0
01 11:55 SW 3 5.00 Partly Cloudy SCT013 SCT026 SCT039 81.5 78.8 92% 90 29.99 0.0 0.03
01 11:35 SW 3 10.00 Fair CLR 82.6 76.3 81% 91 29.99 0.0
01 11:15 SW 5 10.00 Fair CLR 82 76.6 84% 90 29.99 0.0
01 10:55 Calm 10.00 Fair CLR 0 0 0% 29.99 0.0
01 10:35 Calm 7.00 Fair CLR 0 0 0% 29.99 0.0
01 10:15 Calm 7.00 Partly Cloudy SCT002 0 0 0% 29.99 0.0
01 09:55 Calm 5.00 Mostly Cloudy BKN002 0 0 0% 29.99 0.0
01 09:35 Calm 2.50 Overcast OVC002 0 0 0% 29.99 0.0
01 09:15 Calm 0.50 Overcast OVC002 0 0 0% 29.99 0.0
01 08:55 Calm 0.15 Overcast OVC002 0 0 0% 29.99 0.0
01 08:35 Calm 0.15 Overcast OVC002 0 0 0% 30 0.0
01 08:15 Calm 0.15 Overcast OVC002 0 0 0% 30 0.0
01 07:55 Calm 0.15 Overcast OVC002 0 0 0% 30 0.0
01 07:35 Calm 0.15 Overcast OVC002 0 0 0% 29.99 0.0
01 07:15 Calm 0.15 Overcast OVC002 0 0 0% 29.98 0.0
01 06:55 Calm 0.15 Overcast OVC002 0 0 0% 29.97 0.0
01 06:35 Calm 0.15 Overcast OVC002 0 0 0% 29.97 0.0
01 06:15 Calm 0.15 Overcast OVC002 0 0 0% 29.96 0.0
01 05:55 Calm 0.15 Sky Obscured VV000 0 0 0% 29.96 0.0
01 05:35 Calm 0.25 Sky Obscured VV002 0 0 0% 29.96 0.0
01 05:15 Calm 0.25 Sky Obscured VV002 0 0 0% 29.96 0.0
01 04:55 Calm 0.25 Sky Obscured VV002 0 0 0% 29.96 0.0
01 04:35 Calm 0.75 Sky Obscured VV005 0 0 0% 29.96 0.0
01 04:15 Calm 3.00 Fair CLR 0 0 0% 29.96 0.0
01 03:55 Calm 4.00 Fair CLR 0 0 0% 29.95 0.0
01 03:35 Calm 5.00 Fair CLR 0 0 0% 29.95 0.0
01 03:15 Calm 5.00 Fair CLR 0 0 0% 29.95 0.0
01 02:55 Calm 5.00 Fair CLR 0 0 0% 29.95 0.0
01 02:35 Calm 5.00 Fair CLR 0 0 0% 29.96 0.0
01 02:15 Calm 5.00 Fair CLR 0 0 0% 29.95 0.0
01 01:55 Calm 7.00 Fair CLR 0 0 0% 29.96 0.0
01 01:35 Calm 7.00 Fair CLR 0 0 0% 29.95 0.0
01 01:15 SW 3 7.00 Fair CLR 0 0 0% 29.96 0.0
01 00:55 S 5 7.00 Fair CLR 0 0 0% 29.96 0.0
01 00:35 Calm 7.00 Fair CLR 0 0 0% 29.95 0.0
01 00:15 Calm 7.00 Fair CLR 0 0 0% 29.95 0.0
31 23:55 Calm 7.00 Fair CLR 0 0 0% 29.94 0.0
31 23:35 Calm 7.00 Fair CLR 75 75 100% 72 29.95 0.0
31 23:15 Calm 10.00 Fair CLR 75.2 75.2 100% 73 29.94 0.0
31 22:55 Calm 7.00 Fair CLR 75.9 75.9 100% 75 29.94 0.0
31 22:35 Calm 10.00 Fair CLR 76.1 76.1 100% 75 29.94 0.0
31 22:15 Calm 10.00 Fair CLR 75.9 75.9 100% 75 29.94 0.0
31 21:55 Calm 7.00 Fair CLR 76.3 76.3 100% 76 29.95 0.0
31 21:35 Calm 7.00 Fair CLR 76.6 76.6 100% 77 29.94 0.0
31 21:15 Calm 10.00 Fair CLR 76.8 76.8 100% 77 29.94 0.0
31 20:55 Calm 7.00 Fair CLR 77 77 100% 78 29.94 0.0
31 20:35 Calm 10.00 Fair CLR 77.5 77.5 100% 79 29.94 0.0
31 20:15 Calm 10.00 Fair CLR 78.4 78.4 100% 82 29.93 0.0
31 19:55 Calm 10.00 Fair CLR 79.2 77.9 96% 84 29.92 0.0
31 19:35 Calm 7.00 Fair CLR 80.2 77.9 93% 87 29.92 0.0
31 18:35 SW 7 7.00 Fair CLR 85.1 75.4 73% 94 29.92 0.0
31 18:15 S 6 10.00 Fair CLR 85.5 75.2 71% 94 29.91 0.0
31 17:55 Calm 7.00 Fair CLR 84.4 75.4 74% 93 29.9 0.0
31 17:30 S 6 7.00 Fair CLR 84 75.4 75% 92 29.9 0.0
31 17:15 Calm 7.00 Fair CLR 84.9 75.2 73% 94 29.9 0.0
31 16:55 S 7 10.00 Fair CLR 84.7 74.7 72% 93 29.9 0.0
31 16:35 S 10 10.00 Fair CLR 86.4 72 62% 93 29.9 0.0
31 16:15 S 9 10.00 Fair CLR 86.5 71.1 60% 92 29.9 0.0
31 15:55 SW 8 10.00 Fair CLR 86.2 71.2 61% 92 29.91 0.0
31 15:35 S 8 10.00 Fair CLR 85.5 69.6 59% 90 29.9 0.0
31 15:15 S 8 10.00 Fair CLR 86.7 70.3 58% 92 29.91 0.0
31 14:55 SW 8 10.00 Fair CLR 85.8 69.8 59% 90 29.91 0.0
31 14:35 SW 7 10.00 Fair CLR 85.5 70.2 60% 90 29.92 0.0
31 14:15 S 7 10.00 Fair CLR 84.2 68.9 60% 88 29.91 0.0
31 13:55 SW 7 10.00 Fair CLR 83.3 67.6 59% 86 29.91 0.0
31 13:35 SW 7 10.00 Fair CLR 82.4 67.6 61% 85 29.92 0.0
31 13:15 SW 9 10.00 Fair CLR 83.5 68.5 61% 87 29.92 0.0
31 12:55 SW 5 10.00 Fair CLR 81.9 69.3 84.6 71.4 66% 85 29.92 0.0
31 12:35 Calm 10.00 Fair CLR 82.4 68.2 62% 85 29.91 0.0
31 12:15 W 7 10.00 Fair CLR 82.6 69.1 64% 86 29.93 0.0
31 11:55 SW 7 10.00 Fair CLR 82.6 68.5 63% 86 29.94 0.0
31 11:35 SW 9 10.00 Fair CLR 84 66 55% 86 29.93 0.0
31 11:15 W 10 10.00 Fair CLR 83.8 66.7 57% 86 29.92 0.0
31 10:55 SW 9 7.00 Fair CLR 82.8 66.6 58% 85 29.91 0.0
31 10:35 SW 12 10.00 Fair CLR 82.8 66.4 58% 85 29.91 0.0
31 10:15 SW 9 10.00 Fair CLR 81.9 66.2 59% 84 29.9 0.0
31 09:55 SW 9 G 16 10.00 Fair CLR 81 66.2 61% 83 29.9 0.0
31 09:35 SW 10 10.00 Fair CLR 80.8 66.2 61% 83 29.9 0.0
31 09:15 SW 10 10.00 Fair CLR 79.7 66.2 63% 82 29.89 0.0
31 08:55 SW 10 10.00 Fair CLR 78.3 66.4 67% 80 29.89 0.0
31 08:35 SW 13 G 17 10.00 Fair CLR 77.4 66.4 69% 79 29.89 0.0
31 08:15 SW 12 10.00 Fair CLR 76.1 66.2 72% 78 29.89 0.0
31 07:55 SW 13 7.00 Fair CLR 74.8 66.2 75% 29.88 0.0
31 07:35 S 10 7.00 Fair CLR 73.6 66.4 78% 29.88 0.0
31 07:15 S 8 10.00 Fair CLR 72.5 66.4 81% 29.88 0.0
31 06:55 S 7 10.00 Fair CLR 71.4 66.6 73.8 71.4 85% 29.88 0.0
31 06:35 SW 7 10.00 Fair CLR 71.8 66.2 83% 29.88 0.0
31 06:15 S 9 10.00 Partly Cloudy SCT085 72.1 65.8 81% 29.87 0.0
31 05:55 S 10 7.00 Partly Cloudy SCT085 72.5 65.8 80% 29.87 0.0
31 05:35 S 9 10.00 Partly Cloudy SCT085 72.5 65.8 80% 29.87 0.0
31 05:15 S 9 10.00 Partly Cloudy SCT085 72.1 66.4 82% 29.87 0.0
31 04:55 S 8 10.00 Fair CLR 72.1 66.6 83% 29.88 0.0
31 04:35 S 8 7.00 Fair CLR 72.5 66.9 83% 29.89 0.0
31 04:15 S 9 10.00 Fair CLR 72.5 67.5 84% 29.89 0.0
31 03:55 S 8 10.00 Fair CLR 71.8 68.4 89% 29.9 0.0
31 03:35 S 8 10.00 Fair CLR 72.5 68 86% 29.89 0.0
31 03:15 S 8 7.00 Fair CLR 73.4 68 83% 29.89 0.0
31 02:55 S 9 10.00 Fair CLR 73.6 68.2 83% 29.89 0.0
31 02:35 S 10 7.00 Partly Cloudy SCT075 73.8 68.9 85% 29.89 0.0
31 02:15 S 9 10.00 Fair CLR 73.4 69.4 87% 29.9 0.0
31 01:55 S 7 10.00 Fair CLR 73.2 70.2 90% 29.91 0.0
31 01:35 Calm 10.00 Fair CLR 72.5 70.7 94% 29.92 0.0
31 01:15 SE 6 10.00 Fair CLR 72.5 70.5 94% 29.92 0.0
31 00:55 SE 5 10.00 Fair CLR 72 71.2 72.5 70.7 98% 29.92 0.0 0.01
31 00:35 SE 6 10.00 Fair CLR 71.6 71.6 100% 29.92 0.0
31 00:15 SE 7 10.00 Fair CLR 71.2 71.2 100% 29.92 0.0
30 23:55 SE 8 7.00 Fair CLR 70.9 70.9 100% 29.92 0.0
30 23:35 SE 8 7.00 Fair CLR 70.7 70.7 100% 29.92 0.0
30 23:15 SE 7 10.00 Fair CLR 70.7 70.7 100% 29.94 0.0
30 22:55 SE 7 5.00 Fair CLR 71.2 70.2 96% 29.94 0.0
30 22:35 SE 8 10.00 Fair CLR 72 69.1 91% 29.94 0.0
30 22:15 SE 10 10.00 Fair CLR 72.1 68.9 90% 29.94 0.0
30 21:55 SE 12 10.00 Fair CLR 72.5 68.5 87% 29.93 0.0 0.01
30 21:35 SE 12 10.00 Fair CLR 72.5 68.4 87% 29.94 0.0
30 21:15 SE 10 7.00 Fair CLR 72.5 68.4 87% 29.94 0.0
30 20:55 SE 12 10.00 Fair CLR 72.3 68.7 89% 29.94 0.0
30 20:35 SE 13 10.00 Fair CLR 72 69.6 92% 29.94 0.0
30 20:15 S 10 10.00 Fair CLR 72.1 69.4 91% 29.94 0.0
30 19:55 S 13 7.00 Partly Cloudy SCT120 71.6 71.4 99% 29.94 0.0 0.01
30 19:35 S 10 10.00 Partly Cloudy SCT120 71.2 71.2 100% 29.93 0.0 0.01
30 19:15 S 13 10.00 Mostly Cloudy SCT028 SCT042 BKN120 0 0 0% 29.92 0.0 0.01
30 18:55 S 12 7.00 Partly Cloudy SCT120 0 0 0% 29.93 0.0 0.06 0.22
30 18:35 S 10 7.00 Overcast SCT024 SCT036 OVC120 0 0 0% 29.93 0.0 0.06
30 18:15 SW 9 4.00 Overcast SCT027 BKN055 OVC100 0 0 0% 29.97 0.0 0.04
30 17:55 SW 10 7.00 Mostly Cloudy SCT026 SCT038 BKN055 0 0 0% 29.95 0.0 0.1
30 17:35 S 9 7.00 Mostly Cloudy SCT034 SCT042 BKN050 70.7 70.7 100% 29.94 0.0 0.02
30 17:15 S 10 10.00 Partly Cloudy SCT039 SCT055 SCT070 71.1 71.1 100% 29.93 0.0
30 16:55 S 9 10.00 Fair CLR 71.6 71.6 100% 29.93 0.0
30 16:35 S 8 10.00 Fair CLR 71.2 71.2 100% 29.91 0.0
30 16:15 S 8 7.00 Fair CLR 71.8 71.8 100% 29.91 0.0
30 15:55 S 13 7.00 Fair CLR 72.1 72.1 100% 29.92 0.0 0.06
30 15:35 S 13 10.00 Fair CLR 72.5 72.5 100% 29.92 0.0
30 15:15 S 9 10.00 Partly Cloudy SCT100 73 73 100% 29.92 0.0
30 14:55 S 12 G 20 10.00 Mostly Cloudy BKN095 72.7 72.7 100% 29.94 0.0
30 14:35 S 10 7.00 Fair CLR 72.9 72.9 100% 29.93 0.0
30 14:15 S 10 10.00 Fair CLR 72.1 72.1 100% 29.94 0.0
30 13:55 S 8 10.00 Partly Cloudy SCT032 SCT041 SCT048 71.4 71.4 100% 29.96 0.0 0.06
30 13:35 S 8 10.00 Overcast SCT042 BKN055 OVC065 71.6 71.6 100% 29.96 0.0 0.05
30 13:15 Calm 10.00 Overcast SCT038 BKN044 OVC070 72 71.2 98% 29.95 0.0 0.03
30 12:55 SW 10 10.00 Mostly Cloudy SCT036 SCT049 BKN100 73.6 68.2 77.9 69.8 83% 29.97 0.0 0.01 0.01
30 12:35 SW 8 10.00 Partly Cloudy SCT045 SCT075 SCT110 76.1 65.5 70% 78 29.96 0.0
30 12:15 SW 8 10.00 Fair CLR 77.4 64.8 65% 79 29.95 0.0
30 11:55 S 12 G 16 10.00 Fair CLR 77.4 64.2 64% 79 29.95 0.0
30 11:35 S 14 G 21 10.00 Fair CLR 77 63.5 63% 79 29.94 0.0
30 11:15 S 13 G 17 10.00 Fair CLR 77.5 63.1 61% 79 29.92 0.0
30 10:55 S 12 10.00 Fair CLR 77 63.7 64% 79 29.91 0.0
30 10:35 S 10 10.00 Fair CLR 76.5 63 63% 78 29.92 0.0
30 10:15 S 9 10.00 Fair CLR 77.2 63.7 63% 79 29.92 0.0
30 09:55 S 12 10.00 Fair CLR 77.4 63.3 62% 79 29.91 0.0
30 09:35 S 14 10.00 Fair CLR 76.5 63 63% 78 29.9 0.0
30 09:15 S 12 10.00 Fair CLR 75 63 66% 77 29.91 0.0
30 08:55 S 10 10.00 Fair CLR 73.9 63.3 70% 29.91 0.0
30 08:35 S 10 10.00 Fair CLR 73 63.1 71% 29.91 0.0
30 08:15 S 10 10.00 Fair CLR 73 63.1 71% 29.91 0.0
30 07:55 S 8 10.00 Fair CLR 72 63.1 74% 29.91 0.0
30 07:35 S 8 7.00 Fair CLR 70.7 63.3 78% 29.91 0.0
30 07:15 S 8 10.00 Fair CLR 70 62.8 78% 29.9 0.0
30 06:55 S 9 7.00 Fair CLR 69.8 63 72 69.1 79% 29.9 0.0
30 06:35 S 8 7.00 Partly Cloudy SCT090 69.4 63 80% 29.9 0.0
30 06:15 S 7 10.00 Fair CLR 69.1 63 81% 29.9 0.0
30 05:55 S 7 10.00 Fair CLR 69.8 62.6 78% 29.9 0.0
30 05:35 S 8 10.00 Fair CLR 70.2 62.1 76% 29.9 0.0
30 05:15 S 10 7.00 Partly Cloudy SCT100 70.7 61.9 74% 29.9 0.0
30 04:55 S 9 10.00 Partly Cloudy SCT100 70.9 61.7 73% 29.9 0.0
30 04:35 S 7 10.00 Partly Cloudy SCT100 71.1 61.7 72% 29.91 0.0
30 04:15 S 9 10.00 Partly Cloudy SCT100 71.8 61.5 70% 29.91 0.0
30 03:55 S 12 10.00 Partly Cloudy SCT090 SCT120 71.6 62.2 72% 29.91 0.0
30 03:35 S 8 10.00 Partly Cloudy SCT090 71.6 63 74% 29.91 0.0
30 03:15 S 8 10.00 Partly Cloudy SCT090 71.6 63.7 76% 29.91 0.0
30 02:55 S 9 10.00 Partly Cloudy SCT090 71.6 63.9 77% 29.91 0.0
30 02:35 S 8 7.00 Mostly Cloudy BKN090 71.6 64.2 78% 29.91 0.0
30 02:15 S 8 10.00 Mostly Cloudy BKN090 71.6 64.6 79% 29.92 0.0
30 01:55 S 8 10.00 Fair CLR 70.7 65.5 84% 29.92 0.0
30 01:35 S 8 10.00 Fair CLR 70.3 66.2 87% 29.93 0.0
30 01:15 S 7 10.00 Partly Cloudy SCT090 70.2 66.6 88% 29.94 0.0
30 00:55 SE 8 10.00 Partly Cloudy SCT090 69.8 67.1 73.8 68.9 91% 29.94 0.0
30 00:35 SE 8 10.00 Partly Cloudy SCT100 69.4 67.1 92% 29.94 0.0
30 00:15 S 7 10.00 Fair CLR 69.3 67.1 93% 29.95 0.0
29 23:55 SE 7 7.00 Fair CLR 68.9 67.5 95% 29.94 0.0
29 23:35 SE 6 10.00 Partly Cloudy SCT110 69.3 67.3 93% 29.95 0.0
29 23:15 Calm 7.00 Partly Cloudy SCT110 69.8 66.6 90% 29.96 0.0
29 22:55 Calm 10.00 Partly Cloudy SCT120 70.2 66.2 87% 29.95 0.0
29 22:35 S 7 10.00 Partly Cloudy SCT120 70.9 65.7 84% 29.96 0.0
29 22:15 Calm 10.00 Partly Cloudy SCT120 71.8 65.3 80% 29.97 0.0
29 21:55 S 8 10.00 Partly Cloudy SCT110 72.3 64.6 77% 29.96 0.0
29 21:35 S 10 10.00 Partly Cloudy SCT120 72.5 64.4 76% 29.95 0.0
29 21:15 S 9 G 16 10.00 Fair CLR 72.5 64.4 76% 29.95 0.0
29 20:55 S 8 10.00 Fair CLR 72.5 64.2 75% 29.94 0.0
29 20:35 S 8 10.00 Fair CLR 72.5 64 75% 29.93 0.0
29 20:15 S 13 G 16 10.00 Fair CLR 72.5 64.4 76% 29.93 0.0
29 19:55 S 9 10.00 Fair CLR 72.5 65.3 78% 29.92 0.0
29 19:35 S 10 G 16 10.00 Fair CLR 72.7 65.3 78% 29.92 0.0
29 19:15 S 12 G 18 7.00 Fair CLR 73.2 64.8 75% 29.93 0.0
29 18:55 S 15 G 18 10.00 Fair CLR 73.9 64.6 77 68.9 73% 29.94 0.0 0.01
29 18:35 S 14 7.00 Fair CLR 74.5 64.9 72% 29.93 0.0
29 18:15 S 15 G 23 10.00 Fair CLR 74.3 64 70% 29.93 0.0
29 17:55 S 17 G 23 7.00 Fair CLR 75.6 63.5 66% 77 29.93 0.0
29 17:35 S 18 G 24 10.00 Fair CLR 77 63.5 63% 79 29.94 0.0
29 17:15 S 18 G 25 10.00 Fair CLR 76.8 64 65% 79 29.94 0.0
Date Time (cdt) Wind (mph) Vis. (mi.) Weather Sky Cond. Air Dwpt Max. Min. Relative Humidity Wind Chill (°F) Heat Index (°F) altimeter (in) sea level (mb) 1 hr 3 hr 6 hr
6 hour
Temperature (ºF) Pressure Precipitation (in)